sensor_id;sensor_type;location;lat;lon;timestamp;pressure;altitude;pressure_sealevel;temperature;humidity
32320;BME280;19080;51.750;5.888;2024-02-15T00:00:24;101458.69;;;13.17;100.00
32320;BME280;19080;51.750;5.888;2024-02-15T00:02:53;101472.13;;;13.26;100.00
32320;BME280;19080;51.750;5.888;2024-02-15T00:05:20;101471.25;;;13.26;100.00
32320;BME280;19080;51.750;5.888;2024-02-15T00:07:47;101464.97;;;13.22;100.00
32320;BME280;19080;51.750;5.888;2024-02-15T00:10:15;101471.25;;;13.26;100.00
32320;BME280;19080;51.750;5.888;2024-02-15T00:12:42;101463.19;;;13.21;100.00
32320;BME280;19080;51.750;5.888;2024-02-15T00:15:09;101441.63;;;13.08;100.00
32320;BME280;19080;51.750;5.888;2024-02-15T00:17:37;101465.84;;;13.21;100.00
32320;BME280;19080;51.750;5.888;2024-02-15T00:20:04;101447.91;;;13.13;100.00
32320;BME280;19080;51.750;5.888;2024-02-15T00:22:36;101462.31;;;13.22;100.00
32320;BME280;19080;51.750;5.888;2024-02-15T00:25:03;101464.75;;;13.10;100.00
32320;BME280;19080;51.750;5.888;2024-02-15T00:27:32;101457.69;;;13.12;100.00
32320;BME280;19080;51.750;5.888;2024-02-15T00:30:03;101459.47;;;13.13;100.00
32320;BME280;19080;51.750;5.888;2024-02-15T00:32:30;101458.50;;;13.07;100.00
32320;BME280;19080;51.750;5.888;2024-02-15T00:34:57;101457.53;;;13.03;100.00
32320;BME280;19080;51.750;5.888;2024-02-15T00:37:24;101438.66;;;12.88;100.00
32320;BME280;19080;51.750;5.888;2024-02-15T00:39:51;101456.66;;;13.02;100.00
32320;BME280;19080;51.750;5.888;2024-02-15T00:42:17;101445.03;;;12.99;100.00
32320;BME280;19080;51.750;5.888;2024-02-15T00:44:44;101456.59;;;12.99;100.00
32320;BME280;19080;51.750;5.888;2024-02-15T00:47:11;101456.66;;;13.02;100.00
32320;BME280;19080;51.750;5.888;2024-02-15T00:49:38;101461.19;;;13.08;100.00
32320;BME280;19080;51.750;5.888;2024-02-15T00:52:05;101429.78;;;12.87;100.00
32320;BME280;19080;51.750;5.888;2024-02-15T00:54:32;101436.97;;;12.94;100.00
32320;BME280;19080;51.750;5.888;2024-02-15T00:56:59;101456.66;;;13.02;100.00
32320;BME280;19080;51.750;5.888;2024-02-15T00:59:25;101445.94;;;12.99;100.00
32320;BME280;19080;51.750;5.888;2024-02-15T01:01:52;101454.00;;;13.04;100.00
32320;BME280;19080;51.750;5.888;2024-02-15T01:04:19;101447.75;;;13.02;100.00
32320;BME280;19080;51.750;5.888;2024-02-15T01:06:46;101464.69;;;13.06;100.00
32320;BME280;19080;51.750;5.888;2024-02-15T01:09:14;101449.56;;;13.04;100.00
32320;BME280;19080;51.750;5.888;2024-02-15T01:11:40;101452.06;;;12.94;100.00
32320;BME280;19080;51.750;5.888;2024-02-15T01:14:07;101455.63;;;12.94;100.00
32320;BME280;19080;51.750;5.888;2024-02-15T01:16:36;101461.97;;;13.02;100.00
32320;BME280;19080;51.750;5.888;2024-02-15T01:19:03;101461.97;;;13.02;100.00
32320;BME280;19080;51.750;5.888;2024-02-15T01:21:30;101457.56;;;13.04;100.00
32320;BME280;19080;51.750;5.888;2024-02-15T01:23:59;101453.03;;;12.97;100.00
32320;BME280;19080;51.750;5.888;2024-02-15T01:26:29;101452.22;;;13.03;100.00
32320;BME280;19080;51.750;5.888;2024-02-15T01:28:56;101447.72;;;13.00;100.00
32320;BME280;19080;51.750;5.888;2024-02-15T01:31:23;101444.97;;;12.94;100.00
32320;BME280;19080;51.750;5.888;2024-02-15T01:33:49;101429.63;;;12.78;100.00
32320;BME280;19080;51.750;5.888;2024-02-15T01:36:17;101445.75;;;12.87;100.00
32320;BME280;19080;51.750;5.888;2024-02-15T01:38:44;101429.69;;;12.81;100.00
32320;BME280;19080;51.750;5.888;2024-02-15T01:41:12;101441.28;;;12.85;100.00
32320;BME280;19080;51.750;5.888;2024-02-15T01:43:43;101443.91;;;12.82;100.00
32320;BME280;19080;51.750;5.888;2024-02-15T01:46:10;101442.94;;;12.77;100.00
32320;BME280;19080;51.750;5.888;2024-02-15T01:48:37;101420.47;;;12.61;100.00
32320;BME280;19080;51.750;5.888;2024-02-15T01:51:10;101407.97;;;12.57;100.00
32320;BME280;19080;51.750;5.888;2024-02-15T01:53:38;101436.59;;;12.70;100.00
32320;BME280;19080;51.750;5.888;2024-02-15T01:56:07;101433.97;;;12.71;100.00
32320;BME280;19080;51.750;5.888;2024-02-15T01:58:34;101422.31;;;12.65;100.00
32320;BME280;19080;51.750;5.888;2024-02-15T02:01:02;101430.31;;;12.65;100.00
32320;BME280;19080;51.750;5.888;2024-02-15T02:03:29;101436.63;;;12.71;100.00
32320;BME280;19080;51.750;5.888;2024-02-15T02:05:56;101437.53;;;12.72;100.00
32320;BME280;19080;51.750;5.888;2024-02-15T02:08:23;101429.53;;;12.72;100.00
32320;BME280;19080;51.750;5.888;2024-02-15T02:10:50;101418.06;;;12.76;100.00
32320;BME280;19080;51.750;5.888;2024-02-15T02:13:17;101419.84;;;12.77;100.00
32320;BME280;19080;51.750;5.888;2024-02-15T02:15:45;101409.13;;;12.74;100.00
32320;BME280;19080;51.750;5.888;2024-02-15T02:18:12;101409.94;;;12.68;100.00
32320;BME280;19080;51.750;5.888;2024-02-15T02:20:39;101410.66;;;12.57;100.00
32320;BME280;19080;51.750;5.888;2024-02-15T02:23:09;101412.47;;;12.61;100.00
32320;BME280;19080;51.750;5.888;2024-02-15T02:25:40;101408.84;;;12.56;100.00
32320;BME280;19080;51.750;5.888;2024-02-15T02:28:09;101390.97;;;12.47;100.00
32320;BME280;19080;51.750;5.888;2024-02-15T02:30:36;101408.94;;;12.62;100.00
32320;BME280;19080;51.750;5.888;2024-02-15T02:33:03;101366.06;;;12.45;100.00
32320;BME280;19080;51.750;5.888;2024-02-15T02:35:34;101388.38;;;12.52;100.00
32320;BME280;19080;51.750;5.888;2024-02-15T02:38:01;101398.03;;;12.45;100.00
32320;BME280;19080;51.750;5.888;2024-02-15T02:40:29;101394.34;;;12.37;100.00
32320;BME280;19080;51.750;5.888;2024-02-15T02:42:56;101402.38;;;12.40;100.00
32320;BME280;19080;51.750;5.888;2024-02-15T02:45:25;101391.63;;;12.34;100.00
32320;BME280;19080;51.750;5.888;2024-02-15T02:47:53;101375.38;;;12.17;100.00
32320;BME280;19080;51.750;5.888;2024-02-15T02:50:21;101389.56;;;12.16;100.00
32320;BME280;19080;51.750;5.888;2024-02-15T02:52:49;101394.91;;;12.18;100.00
32320;BME280;19080;51.750;5.888;2024-02-15T02:55:16;101374.28;;;12.03;100.00
32320;BME280;19080;51.750;5.888;2024-02-15T02:57:43;101388.59;;;12.11;100.00
32320;BME280;19080;51.750;5.888;2024-02-15T03:00:12;101397.53;;;12.16;100.00
32320;BME280;19080;51.750;5.888;2024-02-15T03:02:42;101377.91;;;12.08;100.00
32320;BME280;19080;51.750;5.888;2024-02-15T03:05:10;101384.19;;;12.12;100.00
32320;BME280;19080;51.750;5.888;2024-02-15T03:07:39;101388.66;;;12.16;100.00
32320;BME280;19080;51.750;5.888;2024-02-15T03:10:09;101391.41;;;12.20;100.00
32320;BME280;19080;51.750;5.888;2024-02-15T03:12:37;101391.50;;;12.26;100.00
32320;BME280;19080;51.750;5.888;2024-02-15T03:15:05;101381.88;;;12.34;100.00
32320;BME280;19080;51.750;5.888;2024-02-15T03:17:38;101383.69;;;12.37;100.00
32320;BME280;19080;51.750;5.888;2024-02-15T03:20:09;101380.06;;;12.32;100.00
32320;BME280;19080;51.750;5.888;2024-02-15T03:22:57;101382.72;;;12.32;100.00
32320;BME280;19080;51.750;5.888;2024-02-15T03:25:25;101369.22;;;12.21;100.00
32320;BME280;19080;51.750;5.888;2024-02-15T03:27:53;101380.91;;;12.29;100.00
32320;BME280;19080;51.750;5.888;2024-02-15T03:30:30;101358.50;;;12.17;100.00
32320;BME280;19080;51.750;5.888;2024-02-15T03:32:58;101382.69;;;12.30;100.00
32320;BME280;19080;51.750;5.888;2024-02-15T03:35:26;101379.13;;;12.28;100.00
32320;BME280;19080;51.750;5.888;2024-02-15T03:37:53;101388.06;;;12.33;100.00
32320;BME280;19080;51.750;5.888;2024-02-15T03:40:21;101363.06;;;12.24;100.00
32320;BME280;19080;51.750;5.888;2024-02-15T03:42:48;101380.09;;;12.33;100.00
32320;BME280;19080;51.750;5.888;2024-02-15T03:45:17;101372.97;;;12.32;100.00
32320;BME280;19080;51.750;5.888;2024-02-15T03:47:44;101374.88;;;12.39;100.00
32320;BME280;19080;51.750;5.888;2024-02-15T03:50:11;101381.94;;;12.37;100.00
32320;BME280;19080;51.750;5.888;2024-02-15T03:52:41;101377.41;;;12.33;100.00
32320;BME280;19080;51.750;5.888;2024-02-15T03:55:08;101381.00;;;12.35;100.00
32320;BME280;19080;51.750;5.888;2024-02-15T03:57:37;101371.28;;;12.37;100.00
32320;BME280;19080;51.750;5.888;2024-02-15T04:00:07;101379.38;;;12.44;100.00
32320;BME280;19080;51.750;5.888;2024-02-15T04:02:37;101382.91;;;12.43;100.00
32320;BME280;19080;51.750;5.888;2024-02-15T04:05:08;101386.47;;;12.45;100.00
32320;BME280;19080;51.750;5.888;2024-02-15T04:07:35;101382.03;;;12.44;100.00
32320;BME280;19080;51.750;5.888;2024-02-15T04:10:04;101378.53;;;12.46;100.00
32320;BME280;19080;51.750;5.888;2024-02-15T04:12:32;101369.63;;;12.46;100.00
32320;BME280;19080;51.750;5.888;2024-02-15T04:14:59;101347.31;;;12.37;100.00
32320;BME280;19080;51.750;5.888;2024-02-15T04:17:31;101365.28;;;12.51;100.00
32320;BME280;19080;51.750;5.888;2024-02-15T04:20:03;101369.81;;;12.58;100.00
32320;BME280;19080;51.750;5.888;2024-02-15T04:22:33;101365.41;;;12.60;100.00
32320;BME280;19080;51.750;5.888;2024-02-15T04:25:06;101371.69;;;12.63;100.00
32320;BME280;19080;51.750;5.888;2024-02-15T04:27:33;101366.34;;;12.63;100.00
32320;BME280;19080;51.750;5.888;2024-02-15T04:30:01;101365.50;;;12.66;100.00
32320;BME280;19080;51.750;5.888;2024-02-15T04:32:29;101361.94;;;12.64;100.00
32320;BME280;19080;51.750;5.888;2024-02-15T04:35:00;101335.97;;;12.49;100.00
32320;BME280;19080;51.750;5.888;2024-02-15T04:37:28;101340.41;;;12.49;100.00
32320;BME280;19080;51.750;5.888;2024-02-15T04:39:56;101357.41;;;12.58;100.00
32320;BME280;19080;51.750;5.888;2024-02-15T04:42:23;101360.13;;;12.63;100.00
32320;BME280;19080;51.750;5.888;2024-02-15T04:44:53;101359.28;;;12.65;100.00
32320;BME280;19080;51.750;5.888;2024-02-15T04:47:20;101359.25;;;12.62;100.00
32320;BME280;19080;51.750;5.888;2024-02-15T04:49:47;101355.72;;;12.63;100.00
32320;BME280;19080;51.750;5.888;2024-02-15T04:52:14;101346.84;;;12.64;100.00
32320;BME280;19080;51.750;5.888;2024-02-15T04:54:41;101337.00;;;12.59;100.00
32320;BME280;19080;51.750;5.888;2024-02-15T04:57:07;101346.03;;;12.70;100.00
32320;BME280;19080;51.750;5.888;2024-02-15T04:59:35;101344.25;;;12.69;100.00
32320;BME280;19080;51.750;5.888;2024-02-15T05:02:02;101346.03;;;12.70;100.00
32320;BME280;19080;51.750;5.888;2024-02-15T05:04:28;101313.94;;;12.61;100.00
32320;BME280;19080;51.750;5.888;2024-02-15T05:06:55;101351.50;;;12.79;100.00
32320;BME280;19080;51.750;5.888;2024-02-15T05:09:22;101339.94;;;12.79;100.00
32320;BME280;19080;51.750;5.888;2024-02-15T05:11:49;101360.41;;;12.81;100.00
32320;BME280;19080;51.750;5.888;2024-02-15T05:14:16;101349.66;;;12.75;100.00
32320;BME280;19080;51.750;5.888;2024-02-15T05:16:47;101340.81;;;12.76;100.00
32320;BME280;19080;51.750;5.888;2024-02-15T05:19:17;101346.97;;;12.72;100.00
32320;BME280;19080;51.750;5.888;2024-02-15T05:21:45;101335.38;;;12.70;100.00
32320;BME280;19080;51.750;5.888;2024-02-15T05:24:16;101346.94;;;12.70;100.00
32320;BME280;19080;51.750;5.888;2024-02-15T05:26:44;101354.13;;;12.76;100.00
32320;BME280;19080;51.750;5.888;2024-02-15T05:29:15;101344.38;;;12.78;100.00
32320;BME280;19080;51.750;5.888;2024-02-15T05:31:43;101333.63;;;12.72;100.00
32320;BME280;19080;51.750;5.888;2024-02-15T05:34:10;101336.28;;;12.70;100.00
32320;BME280;19080;51.750;5.888;2024-02-15T05:36:39;101346.13;;;12.76;100.00
32320;BME280;19080;51.750;5.888;2024-02-15T05:39:06;101339.81;;;12.69;100.00
32320;BME280;19080;51.750;5.888;2024-02-15T05:41:34;101355.06;;;12.80;100.00
32320;BME280;19080;51.750;5.888;2024-02-15T05:44:01;101345.25;;;12.77;100.00
32320;BME280;19080;51.750;5.888;2024-02-15T05:46:31;101343.41;;;12.73;100.00
32320;BME280;19080;51.750;5.888;2024-02-15T05:48:57;101342.50;;;12.71;100.00
32320;BME280;19080;51.750;5.888;2024-02-15T05:51:26;101343.41;;;12.73;100.00
32320;BME280;19080;51.750;5.888;2024-02-15T05:53:53;101331.72;;;12.62;100.00
32320;BME280;19080;51.750;5.888;2024-02-15T05:56:25;101342.41;;;12.65;100.00
32320;BME280;19080;51.750;5.888;2024-02-15T05:58:52;101336.16;;;12.61;100.00
32320;BME280;19080;51.750;5.888;2024-02-15T06:01:19;101332.50;;;12.55;100.00
32320;BME280;19080;51.750;5.888;2024-02-15T06:03:46;101339.63;;;12.57;100.00
32320;BME280;19080;51.750;5.888;2024-02-15T06:06:14;101344.13;;;12.60;100.00
32320;BME280;19080;51.750;5.888;2024-02-15T06:08:42;101343.25;;;12.62;100.00
32320;BME280;19080;51.750;5.888;2024-02-15T06:11:13;101331.72;;;12.62;100.00
32320;BME280;19080;51.750;5.888;2024-02-15T06:13:41;101312.13;;;12.57;100.00
32320;BME280;19080;51.750;5.888;2024-02-15T06:16:07;101270.97;;;12.35;100.00
32320;BME280;19080;51.750;5.888;2024-02-15T06:18:36;101271.94;;;12.40;100.00
32320;BME280;19080;51.750;5.888;2024-02-15T06:21:04;101217.44;;;12.12;100.00
32320;BME280;19080;51.750;5.888;2024-02-15T06:23:32;101233.53;;;12.24;100.00
32320;BME280;19080;51.750;5.888;2024-02-15T06:26:00;101207.72;;;12.17;100.00
32320;BME280;19080;51.750;5.888;2024-02-15T06:28:30;101202.38;;;12.16;100.00
32320;BME280;19080;51.750;5.888;2024-02-15T06:31:14;101176.41;;;11.98;100.00
32320;BME280;19080;51.750;5.888;2024-02-15T06:34:00;101217.38;;;12.09;100.00
32320;BME280;19080;51.750;5.888;2024-02-15T06:36:47;101265.34;;;12.15;100.00
32320;BME280;19080;51.750;5.888;2024-02-15T06:39:46;101283.19;;;12.22;100.00
32320;BME280;19080;51.750;5.888;2024-02-15T06:42:14;101271.59;;;12.17;100.00
32320;BME280;19080;51.750;5.888;2024-02-15T06:44:44;101300.22;;;12.33;100.00
32320;BME280;19080;51.750;5.888;2024-02-15T06:47:11;101303.91;;;12.42;100.00
32320;BME280;19080;51.750;5.888;2024-02-15T06:49:39;101303.06;;;12.44;100.00
32320;BME280;19080;51.750;5.888;2024-02-15T06:52:07;101308.44;;;12.49;100.00
32320;BME280;19080;51.750;5.888;2024-02-15T06:54:36;101282.56;;;12.38;100.00
32320;BME280;19080;51.750;5.888;2024-02-15T06:57:04;101286.16;;;12.42;100.00
32320;BME280;19080;51.750;5.888;2024-02-15T06:59:32;101289.78;;;12.47;100.00
32320;BME280;19080;51.750;5.888;2024-02-15T07:02:02;101320.16;;;12.61;100.00
32320;BME280;19080;51.750;5.888;2024-02-15T07:04:31;101329.97;;;12.64;100.00
32320;BME280;19080;51.750;5.888;2024-02-15T07:06:59;101326.38;;;12.62;100.00
32320;BME280;19080;51.750;5.888;2024-02-15T07:09:28;101333.53;;;12.64;100.00
32320;BME280;19080;51.750;5.888;2024-02-15T07:11:56;101297.88;;;12.55;100.00
32320;BME280;19080;51.750;5.888;2024-02-15T07:14:24;101328.22;;;12.66;100.00
32320;BME280;19080;51.750;5.888;2024-02-15T07:16:50;101325.53;;;12.64;100.00
32320;BME280;19080;51.750;5.888;2024-02-15T07:19:17;101310.31;;;12.56;100.00
32320;BME280;19080;51.750;5.888;2024-02-15T07:21:45;101328.19;;;12.63;100.00
32320;BME280;19080;51.750;5.888;2024-02-15T07:24:13;101302.44;;;12.63;100.00
32320;BME280;19080;51.750;5.888;2024-02-15T07:26:40;101253.34;;;12.45;100.00
32320;BME280;19080;51.750;5.888;2024-02-15T07:29:07;101232.81;;;12.34;100.00
32320;BME280;19080;51.750;5.888;2024-02-15T07:31:35;101260.31;;;12.35;100.00
32320;BME280;19080;51.750;5.888;2024-02-15T07:34:02;101261.09;;;12.28;100.00
32320;BME280;19080;51.750;5.888;2024-02-15T07:36:32;101288.78;;;12.41;100.00
32320;BME280;19080;51.750;5.888;2024-02-15T07:38:59;101269.16;;;12.32;100.00
32320;BME280;19080;51.750;5.888;2024-02-15T07:41:29;101285.22;;;12.38;100.00
32320;BME280;19080;51.750;5.888;2024-02-15T07:43:55;101279.75;;;12.29;100.00
32320;BME280;19080;51.750;5.888;2024-02-15T07:46:24;101280.63;;;12.28;100.00
32320;BME280;19080;51.750;5.888;2024-02-15T07:48:51;101284.97;;;12.23;100.00
32320;BME280;19080;51.750;5.888;2024-02-15T07:51:20;101287.75;;;12.29;100.00
32320;BME280;19080;51.750;5.888;2024-02-15T07:53:48;101299.31;;;12.31;100.00
32320;BME280;19080;51.750;5.888;2024-02-15T07:56:16;101300.25;;;12.35;100.00
32320;BME280;19080;51.750;5.888;2024-02-15T07:58:44;101282.31;;;12.23;100.00
32320;BME280;19080;51.750;5.888;2024-02-15T08:01:19;101292.25;;;12.33;100.00
32320;BME280;19080;51.750;5.888;2024-02-15T08:03:50;101302.97;;;12.39;100.00
32320;BME280;19080;51.750;5.888;2024-02-15T08:06:17;101303.03;;;12.43;100.00
32320;BME280;19080;51.750;5.888;2024-02-15T08:08:46;101302.16;;;12.44;100.00
32320;BME280;19080;51.750;5.888;2024-02-15T08:11:15;101263.75;;;12.26;100.00
32320;BME280;19080;51.750;5.888;2024-02-15T08:13:46;101298.56;;;12.42;100.00
32320;BME280;19080;51.750;5.888;2024-02-15T08:16:18;101290.59;;;12.42;100.00
32320;BME280;19080;51.750;5.888;2024-02-15T08:18:45;101291.50;;;12.44;100.00
32320;BME280;19080;51.750;5.888;2024-02-15T08:21:15;101292.41;;;12.46;100.00
32320;BME280;19080;51.750;5.888;2024-02-15T08:23:42;101283.63;;;12.51;100.00
32320;BME280;19080;51.750;5.888;2024-02-15T08:26:09;101281.81;;;12.49;100.00
32320;BME280;19080;51.750;5.888;2024-02-15T08:28:39;101280.91;;;12.48;100.00
32320;BME280;19080;51.750;5.888;2024-02-15T08:31:06;101289.81;;;12.50;100.00
32320;BME280;19080;51.750;5.888;2024-02-15T08:33:34;101268.44;;;12.44;100.00
32320;BME280;19080;51.750;5.888;2024-02-15T08:36:01;101290.81;;;12.57;100.00
32320;BME280;19080;51.750;5.888;2024-02-15T08:38:29;101283.78;;;12.62;100.00
32320;BME280;19080;51.750;5.888;2024-02-15T08:40:55;101273.13;;;12.62;100.00
32320;BME280;19080;51.750;5.888;2024-02-15T08:43:22;101278.44;;;12.62;100.00
32320;BME280;19080;51.750;5.888;2024-02-15T08:45:49;101292.81;;;12.73;100.00
32320;BME280;19080;51.750;5.888;2024-02-15T08:48:17;101286.63;;;12.74;100.00
32320;BME280;19080;51.750;5.888;2024-02-15T08:50:44;101262.47;;;12.62;100.00
32320;BME280;19080;51.750;5.888;2024-02-15T08:53:12;101280.44;;;12.78;100.00
32320;BME280;19080;51.750;5.888;2024-02-15T08:55:41;101267.94;;;12.73;100.00
32320;BME280;19080;51.750;5.888;2024-02-15T08:58:08;101289.44;;;12.86;100.00
32320;BME280;19080;51.750;5.888;2024-02-15T09:00:36;101260.75;;;12.67;100.00
32320;BME280;19080;51.750;5.888;2024-02-15T09:03:07;101276.91;;;12.79;100.00
32320;BME280;19080;51.750;5.888;2024-02-15T09:05:34;101249.19;;;12.65;100.00
32320;BME280;19080;51.750;5.888;2024-02-15T09:08:01;101276.00;;;12.77;100.00
32320;BME280;19080;51.750;5.888;2024-02-15T09:10:28;101271.53;;;12.75;100.00
32320;BME280;19080;51.750;5.888;2024-02-15T09:12:54;101281.31;;;12.77;100.00
32320;BME280;19080;51.750;5.888;2024-02-15T09:15:21;101279.50;;;12.73;100.00
32320;BME280;19080;51.750;5.888;2024-02-15T09:17:49;101258.94;;;12.63;100.00
32320;BME280;19080;51.750;5.888;2024-02-15T09:20:16;101259.03;;;12.69;100.00
32320;BME280;19080;51.750;5.888;2024-02-15T09:22:50;101252.72;;;12.62;100.00
32320;BME280;19080;51.750;5.888;2024-02-15T09:25:18;101278.63;;;12.74;100.00
32320;BME280;19080;51.750;5.888;2024-02-15T09:27:45;101286.72;;;12.83;100.00
32320;BME280;19080;51.750;5.888;2024-02-15T09:30:17;101287.66;;;12.85;100.00
32320;BME280;19080;51.750;5.888;2024-02-15T09:32:44;101276.13;;;12.88;100.00
32320;BME280;19080;51.750;5.888;2024-02-15T09:35:12;101280.59;;;12.89;100.00
32320;BME280;19080;51.750;5.888;2024-02-15T09:37:45;101277.06;;;12.91;100.00
32320;BME280;19080;51.750;5.888;2024-02-15T09:40:12;101278.00;;;12.95;100.00
32320;BME280;19080;51.750;5.888;2024-02-15T09:42:39;101271.84;;;12.99;100.00
32320;BME280;19080;51.750;5.888;2024-02-15T09:45:07;101289.66;;;13.04;100.00
32320;BME280;19080;51.750;5.888;2024-02-15T09:47:39;101286.16;;;13.09;100.00
32320;BME280;19080;51.750;5.888;2024-02-15T09:50:13;101283.53;;;13.10;100.00
32320;BME280;19080;51.750;5.888;2024-02-15T09:52:53;101290.75;;;13.19;100.00
32320;BME280;19080;51.750;5.888;2024-02-15T09:55:20;101284.56;;;13.20;100.00
32320;BME280;19080;51.750;5.888;2024-02-15T09:57:50;101265.78;;;13.12;100.00
32320;BME280;19080;51.750;5.888;2024-02-15T10:00:17;101249.75;;;13.09;100.00
32320;BME280;19080;51.750;5.888;2024-02-15T10:02:47;101278.41;;;13.25;100.00
32320;BME280;19080;51.750;5.888;2024-02-15T10:05:15;101257.78;;;13.14;100.00
32320;BME280;19080;51.750;5.888;2024-02-15T10:07:43;101274.09;;;13.38;100.00
32320;BME280;19080;51.750;5.888;2024-02-15T10:10:23;101280.38;;;13.43;100.00
32320;BME280;19080;51.750;5.888;2024-02-15T10:12:53;101282.22;;;13.49;100.00
32320;BME280;19080;51.750;5.888;2024-02-15T10:15:41;101280.41;;;13.48;100.00
32320;BME280;19080;51.750;5.888;2024-02-15T10:18:10;101282.25;;;13.53;100.00
32320;BME280;19080;51.750;5.888;2024-02-15T10:20:39;101281.34;;;13.51;100.00
32320;BME280;19080;51.750;5.888;2024-02-15T10:25:39;101279.53;;;13.47;100.00
32320;BME280;19080;51.750;5.888;2024-02-15T10:28:13;101252.66;;;13.29;100.00
32320;BME280;19080;51.750;5.888;2024-02-15T10:30:43;101280.34;;;13.40;100.00
32320;BME280;19080;51.750;5.888;2024-02-15T10:33:28;101279.47;;;13.41;100.00
32320;BME280;19080;51.750;5.888;2024-02-15T10:36:10;101278.59;;;13.44;100.00
32320;BME280;19080;51.750;5.888;2024-02-15T10:38:40;101270.66;;;13.48;100.00
32320;BME280;19080;51.750;5.888;2024-02-15T10:41:07;101277.84;;;13.55;100.00
32320;BME280;19080;51.750;5.888;2024-02-15T10:43:35;101251.94;;;13.45;100.00
32320;BME280;19080;51.750;5.888;2024-02-15T10:46:04;101280.66;;;13.74;100.00
32320;BME280;19080;51.750;5.888;2024-02-15T10:48:34;101272.78;;;13.89;100.00
32320;BME280;19080;51.750;5.888;2024-02-15T10:51:03;101271.00;;;13.86;100.00
32320;BME280;19080;51.750;5.888;2024-02-15T10:53:35;101278.09;;;13.83;100.00
32320;BME280;19080;51.750;5.888;2024-02-15T10:58:32;101270.00;;;13.72;100.00
32320;BME280;19080;51.750;5.888;2024-02-15T11:01:06;101268.25;;;13.77;100.00
32320;BME280;19080;51.750;5.888;2024-02-15T11:03:35;101260.31;;;13.88;100.00
32320;BME280;19080;51.750;5.888;2024-02-15T11:06:05;101268.47;;;14.08;100.00
32320;BME280;19080;51.750;5.888;2024-02-15T11:08:34;101267.63;;;14.13;100.00
32320;BME280;19080;51.750;5.888;2024-02-15T11:11:01;101257.81;;;14.11;100.00
32320;BME280;19080;51.750;5.888;2024-02-15T11:13:31;101261.44;;;14.17;100.00
32320;BME280;19080;51.750;5.888;2024-02-15T11:15:58;101256.09;;;14.19;100.00
32320;BME280;19080;51.750;5.888;2024-02-15T11:18:44;101267.78;;;14.34;100.00
32320;BME280;19080;51.750;5.888;2024-02-15T11:21:12;101260.78;;;14.49;100.00
32320;BME280;19080;51.750;5.888;2024-02-15T11:23:39;101234.09;;;14.55;100.00
32320;BME280;19080;51.750;5.888;2024-02-15T11:26:08;101259.13;;;14.75;100.00
32320;BME280;19080;51.750;5.888;2024-02-15T11:28:37;101250.28;;;14.82;100.00
32320;BME280;19080;51.750;5.888;2024-02-15T11:31:09;101223.50;;;14.73;100.00
32320;BME280;19080;51.750;5.888;2024-02-15T11:33:36;101227.06;;;14.75;100.00
32320;BME280;19080;51.750;5.888;2024-02-15T11:36:11;101253.00;;;14.99;100.00
32320;BME280;19080;51.750;5.888;2024-02-15T11:38:40;101254.81;;;15.02;100.00
32320;BME280;19080;51.750;5.888;2024-02-15T11:41:09;101240.56;;;15.09;100.00
32320;BME280;19080;51.750;5.888;2024-02-15T11:46:14;101219.16;;;15.06;100.00
32320;BME280;19080;51.750;5.888;2024-02-15T11:48:41;101227.25;;;15.24;100.00
32320;BME280;19080;51.750;5.888;2024-02-15T11:51:08;101219.19;;;15.19;100.00
32320;BME280;19080;51.750;5.888;2024-02-15T11:53:38;101218.31;;;15.22;100.00
32320;BME280;19080;51.750;5.888;2024-02-15T11:56:06;101220.97;;;15.14;100.00
32320;BME280;19080;51.750;5.888;2024-02-15T11:58:37;101207.56;;;14.97;100.00
32320;BME280;19080;51.750;5.888;2024-02-15T12:01:19;101220.09;;;15.20;100.00
32320;BME280;19080;51.750;5.888;2024-02-15T12:04:04;101222.75;;;15.18;100.00
32320;BME280;19080;51.750;5.888;2024-02-15T12:06:57;101198.69;;;15.08;100.00
32320;BME280;19080;51.750;5.888;2024-02-15T12:09:43;101210.25;;;15.07;100.00
32320;BME280;19080;51.750;5.888;2024-02-15T12:12:32;101193.28;;;14.95;100.00
32320;BME280;19080;51.750;5.888;2024-02-15T12:15:17;101202.22;;;14.97;100.00
32320;BME280;19080;51.750;5.888;2024-02-15T12:18:15;101165.69;;;14.96;100.00
32320;BME280;19080;51.750;5.888;2024-02-15T12:21:02;101186.22;;;15.19;100.00
32320;BME280;19080;51.750;5.888;2024-02-15T12:23:29;101187.13;;;15.32;100.00
32320;BME280;19080;51.750;5.888;2024-02-15T12:26:01;101171.97;;;15.32;100.00
32320;BME280;19080;51.750;5.888;2024-02-15T12:28:31;101179.13;;;15.39;100.00
32320;BME280;19080;51.750;5.888;2024-02-15T12:30:57;101168.41;;;15.38;100.00
32320;BME280;19080;51.750;5.888;2024-02-15T12:33:24;101175.56;;;15.49;100.00
32320;BME280;19080;51.750;5.888;2024-02-15T12:35:51;101174.66;;;15.64;100.00
32320;BME280;19080;51.750;5.888;2024-02-15T12:38:18;101161.28;;;15.64;100.00
32320;BME280;19080;51.750;5.888;2024-02-15T12:40:45;101152.41;;;15.57;100.00
32320;BME280;19080;51.750;5.888;2024-02-15T12:43:15;101153.25;;;15.62;100.00
32320;BME280;19080;51.750;5.888;2024-02-15T12:45:42;101127.38;;;15.61;100.00
32320;BME280;19080;51.750;5.888;2024-02-15T12:48:09;101121.19;;;15.59;100.00
32320;BME280;19080;51.750;5.888;2024-02-15T12:50:37;101145.22;;;15.66;100.00
32320;BME280;19080;51.750;5.888;2024-02-15T12:53:04;101143.44;;;15.61;100.00
32320;BME280;19080;51.750;5.888;2024-02-15T12:55:34;101131.84;;;15.72;100.00
32320;BME280;19080;51.750;5.888;2024-02-15T12:58:03;101130.03;;;15.83;100.00